sensor_id;sensor_type;location;lat;lon;timestamp;temperature;humidity
66722;SHT31;53633;49.932;10.884;2023-05-27T00:01:53;12.83;64.82
66722;SHT31;53633;49.932;10.884;2023-05-27T00:04:19;12.72;65.41
66722;SHT31;53633;49.932;10.884;2023-05-27T00:06:47;12.76;64.86
66722;SHT31;53633;49.932;10.884;2023-05-27T00:09:14;12.76;65.08
66722;SHT31;53633;49.932;10.884;2023-05-27T00:11:40;12.74;64.92
66722;SHT31;53633;49.932;10.884;2023-05-27T00:14:07;12.66;65.14
66722;SHT31;53633;49.932;10.884;2023-05-27T00:16:34;12.67;65.03
66722;SHT31;53633;49.932;10.884;2023-05-27T00:19:02;12.77;64.78
66722;SHT31;53633;49.932;10.884;2023-05-27T00:21:29;12.42;65.50
66722;SHT31;53633;49.932;10.884;2023-05-27T00:23:55;12.33;66.01
66722;SHT31;53633;49.932;10.884;2023-05-27T00:26:22;12.25;66.05
66722;SHT31;53633;49.932;10.884;2023-05-27T00:28:49;12.22;66.39
66722;SHT31;53633;49.932;10.884;2023-05-27T00:31:16;12.26;65.98
66722;SHT31;53633;49.932;10.884;2023-05-27T00:33:42;12.29;65.89
66722;SHT31;53633;49.932;10.884;2023-05-27T00:36:10;12.37;65.40
66722;SHT31;53633;49.932;10.884;2023-05-27T00:38:37;12.33;65.47
66722;SHT31;53633;49.932;10.884;2023-05-27T00:41:04;12.14;65.76
66722;SHT31;53633;49.932;10.884;2023-05-27T00:43:31;12.21;65.80
66722;SHT31;53633;49.932;10.884;2023-05-27T00:45:57;12.21;65.76
66722;SHT31;53633;49.932;10.884;2023-05-27T00:48:24;12.26;65.54
66722;SHT31;53633;49.932;10.884;2023-05-27T00:50:52;12.11;65.87
66722;SHT31;53633;49.932;10.884;2023-05-27T00:53:20;12.06;65.71
66722;SHT31;53633;49.932;10.884;2023-05-27T00:55:47;11.87;66.09
66722;SHT31;53633;49.932;10.884;2023-05-27T00:58:14;12.11;65.59
66722;SHT31;53633;49.932;10.884;2023-05-27T01:00:40;12.08;65.25
66722;SHT31;53633;49.932;10.884;2023-05-27T01:03:07;12.06;65.18
66722;SHT31;53633;49.932;10.884;2023-05-27T01:05:34;11.97;65.45
66722;SHT31;53633;49.932;10.884;2023-05-27T01:08:13;12.01;65.39
66722;SHT31;53633;49.932;10.884;2023-05-27T01:10:45;12.04;65.14
66722;SHT31;53633;49.932;10.884;2023-05-27T01:13:16;12.05;64.84
66722;SHT31;53633;49.932;10.884;2023-05-27T01:15:46;12.14;64.61
66722;SHT31;53633;49.932;10.884;2023-05-27T01:18:15;12.05;64.83
66722;SHT31;53633;49.932;10.884;2023-05-27T01:20:42;12.08;64.58
66722;SHT31;53633;49.932;10.884;2023-05-27T01:23:12;12.15;64.24
66722;SHT31;53633;49.932;10.884;2023-05-27T01:25:38;12.04;64.52
66722;SHT31;53633;49.932;10.884;2023-05-27T01:28:05;12.14;64.24
66722;SHT31;53633;49.932;10.884;2023-05-27T01:30:32;12.14;64.46
66722;SHT31;53633;49.932;10.884;2023-05-27T01:33:03;12.14;64.28
66722;SHT31;53633;49.932;10.884;2023-05-27T01:35:33;12.11;64.48
66722;SHT31;53633;49.932;10.884;2023-05-27T01:38:08;12.11;64.35
66722;SHT31;53633;49.932;10.884;2023-05-27T01:40:37;12.04;64.58
66722;SHT31;53633;49.932;10.884;2023-05-27T01:43:05;11.99;64.65
66722;SHT31;53633;49.932;10.884;2023-05-27T01:45:33;12.02;64.37
66722;SHT31;53633;49.932;10.884;2023-05-27T01:48:00;11.98;64.59
66722;SHT31;53633;49.932;10.884;2023-05-27T01:50:27;11.99;64.34
66722;SHT31;53633;49.932;10.884;2023-05-27T01:52:53;11.99;64.73
66722;SHT31;53633;49.932;10.884;2023-05-27T01:55:20;11.88;65.05
66722;SHT31;53633;49.932;10.884;2023-05-27T01:57:48;11.87;65.16
66722;SHT31;53633;49.932;10.884;2023-05-27T02:00:16;11.82;65.36
66722;SHT31;53633;49.932;10.884;2023-05-27T02:02:42;11.89;65.17
66722;SHT31;53633;49.932;10.884;2023-05-27T02:05:09;11.74;65.61
66722;SHT31;53633;49.932;10.884;2023-05-27T02:07:36;11.75;65.52
66722;SHT31;53633;49.932;10.884;2023-05-27T02:10:03;11.69;65.77
66722;SHT31;53633;49.932;10.884;2023-05-27T02:12:30;11.66;65.62
66722;SHT31;53633;49.932;10.884;2023-05-27T02:14:58;11.77;65.67
66722;SHT31;53633;49.932;10.884;2023-05-27T02:17:25;11.73;65.88
66722;SHT31;53633;49.932;10.884;2023-05-27T02:19:51;11.71;65.57
66722;SHT31;53633;49.932;10.884;2023-05-27T02:22:18;11.59;66.04
66722;SHT31;53633;49.932;10.884;2023-05-27T02:24:45;11.53;66.09
66722;SHT31;53633;49.932;10.884;2023-05-27T02:27:11;11.40;66.52
66722;SHT31;53633;49.932;10.884;2023-05-27T02:29:38;11.50;66.40
66722;SHT31;53633;49.932;10.884;2023-05-27T02:32:06;11.40;66.75
66722;SHT31;53633;49.932;10.884;2023-05-27T02:34:33;11.40;66.71
66722;SHT31;53633;49.932;10.884;2023-05-27T02:37:00;11.39;66.93
66722;SHT31;53633;49.932;10.884;2023-05-27T02:39:26;11.39;67.53
66722;SHT31;53633;49.932;10.884;2023-05-27T02:41:53;11.24;67.64
66722;SHT31;53633;49.932;10.884;2023-05-27T02:44:20;11.18;67.50
66722;SHT31;53633;49.932;10.884;2023-05-27T02:46:47;11.37;67.20
66722;SHT31;53633;49.932;10.884;2023-05-27T02:49:15;11.26;67.42
66722;SHT31;53633;49.932;10.884;2023-05-27T02:51:42;11.26;67.58
66722;SHT31;53633;49.932;10.884;2023-05-27T02:54:09;11.16;68.06
66722;SHT31;53633;49.932;10.884;2023-05-27T02:56:35;11.01;68.72
66722;SHT31;53633;49.932;10.884;2023-05-27T02:59:02;10.92;68.93
66722;SHT31;53633;49.932;10.884;2023-05-27T03:01:29;10.94;69.17
66722;SHT31;53633;49.932;10.884;2023-05-27T03:03:56;10.99;68.80
66722;SHT31;53633;49.932;10.884;2023-05-27T03:06:24;10.98;69.11
66722;SHT31;53633;49.932;10.884;2023-05-27T03:08:50;11.06;68.65
66722;SHT31;53633;49.932;10.884;2023-05-27T03:11:17;11.06;68.79
66722;SHT31;53633;49.932;10.884;2023-05-27T03:13:44;10.92;69.21
66722;SHT31;53633;49.932;10.884;2023-05-27T03:16:11;10.92;69.20
66722;SHT31;53633;49.932;10.884;2023-05-27T03:18:37;10.94;69.21
66722;SHT31;53633;49.932;10.884;2023-05-27T03:21:04;10.88;69.29
66722;SHT31;53633;49.932;10.884;2023-05-27T03:23:33;10.95;69.03
66722;SHT31;53633;49.932;10.884;2023-05-27T03:25:59;10.94;69.28
66722;SHT31;53633;49.932;10.884;2023-05-27T03:28:26;10.88;69.38
66722;SHT31;53633;49.932;10.884;2023-05-27T03:30:53;10.91;69.41
66722;SHT31;53633;49.932;10.884;2023-05-27T03:33:20;10.92;69.33
66722;SHT31;53633;49.932;10.884;2023-05-27T03:35:46;11.01;69.12
66722;SHT31;53633;49.932;10.884;2023-05-27T03:38:13;11.01;68.98
66722;SHT31;53633;49.932;10.884;2023-05-27T03:40:41;11.01;69.20
66722;SHT31;53633;49.932;10.884;2023-05-27T03:43:08;10.95;69.26
66722;SHT31;53633;49.932;10.884;2023-05-27T03:45:35;11.05;69.21
66722;SHT31;53633;49.932;10.884;2023-05-27T03:48:02;11.04;69.34
66722;SHT31;53633;49.932;10.884;2023-05-27T03:50:29;10.95;69.56
66722;SHT31;53633;49.932;10.884;2023-05-27T03:52:55;10.96;69.75
66722;SHT31;53633;49.932;10.884;2023-05-27T03:55:23;11.04;69.72
66722;SHT31;53633;49.932;10.884;2023-05-27T03:57:51;11.06;69.29
66722;SHT31;53633;49.932;10.884;2023-05-27T04:00:18;11.20;69.13
66722;SHT31;53633;49.932;10.884;2023-05-27T04:02:45;11.27;68.71
66722;SHT31;53633;49.932;10.884;2023-05-27T04:05:12;11.30;68.50
66722;SHT31;53633;49.932;10.884;2023-05-27T04:07:38;11.36;68.56
66722;SHT31;53633;49.932;10.884;2023-05-27T04:10:06;11.75;67.38
66722;SHT31;53633;49.932;10.884;2023-05-27T04:12:33;12.12;66.20
66722;SHT31;53633;49.932;10.884;2023-05-27T04:15:01;12.37;65.53
66722;SHT31;53633;49.932;10.884;2023-05-27T04:17:27;12.64;64.82
66722;SHT31;53633;49.932;10.884;2023-05-27T04:19:54;13.00;63.48
66722;SHT31;53633;49.932;10.884;2023-05-27T04:22:21;13.40;62.41
66722;SHT31;53633;49.932;10.884;2023-05-27T04:24:48;13.81;61.11
66722;SHT31;53633;49.932;10.884;2023-05-27T04:27:15;14.25;59.97
66722;SHT31;53633;49.932;10.884;2023-05-27T04:29:41;14.58;58.79
66722;SHT31;53633;49.932;10.884;2023-05-27T04:32:09;15.17;57.52
66722;SHT31;53633;49.932;10.884;2023-05-27T04:34:36;15.35;57.05
66722;SHT31;53633;49.932;10.884;2023-05-27T04:37:03;15.86;55.92
66722;SHT31;53633;49.932;10.884;2023-05-27T04:39:30;15.83;55.38
66722;SHT31;53633;49.932;10.884;2023-05-27T04:41:57;16.21;54.62
66722;SHT31;53633;49.932;10.884;2023-05-27T04:44:24;16.82;53.37
66722;SHT31;53633;49.932;10.884;2023-05-27T04:46:50;16.95;53.13
66722;SHT31;53633;49.932;10.884;2023-05-27T04:49:18;17.26;52.48
66722;SHT31;53633;49.932;10.884;2023-05-27T04:51:45;17.75;51.22
66722;SHT31;53633;49.932;10.884;2023-05-27T04:54:12;18.19;50.12
66722;SHT31;53633;49.932;10.884;2023-05-27T04:56:38;17.89;50.51
66722;SHT31;53633;49.932;10.884;2023-05-27T04:59:05;18.12;50.35
66722;SHT31;53633;49.932;10.884;2023-05-27T05:01:32;18.14;50.21
66722;SHT31;53633;49.932;10.884;2023-05-27T05:03:59;18.43;50.00
66722;SHT31;53633;49.932;10.884;2023-05-27T05:06:27;18.74;49.28
66722;SHT31;53633;49.932;10.884;2023-05-27T05:08:54;19.23;48.89
66722;SHT31;53633;49.932;10.884;2023-05-27T05:11:21;19.39;48.08
66722;SHT31;53633;49.932;10.884;2023-05-27T05:13:48;19.24;48.46
66722;SHT31;53633;49.932;10.884;2023-05-27T05:16:14;19.02;48.86
66722;SHT31;53633;49.932;10.884;2023-05-27T05:18:41;19.27;48.53
66722;SHT31;53633;49.932;10.884;2023-05-27T05:21:08;19.96;47.05
66722;SHT31;53633;49.932;10.884;2023-05-27T05:23:36;20.15;46.53
66722;SHT31;53633;49.932;10.884;2023-05-27T05:26:03;20.43;46.18
66722;SHT31;53633;49.932;10.884;2023-05-27T05:28:29;20.69;45.06
66722;SHT31;53633;49.932;10.884;2023-05-27T05:30:56;20.57;45.33
66722;SHT31;53633;49.932;10.884;2023-05-27T05:33:23;21.18;44.48
66722;SHT31;53633;49.932;10.884;2023-05-27T05:35:50;20.94;45.09
66722;SHT31;53633;49.932;10.884;2023-05-27T05:38:16;21.76;43.61
66722;SHT31;53633;49.932;10.884;2023-05-27T05:40:44;21.07;44.39
66722;SHT31;53633;49.932;10.884;2023-05-27T05:43:11;21.54;43.48
66722;SHT31;53633;49.932;10.884;2023-05-27T05:45:38;21.67;43.48
66722;SHT31;53633;49.932;10.884;2023-05-27T05:48:05;21.41;43.47
66722;SHT31;53633;49.932;10.884;2023-05-27T05:50:31;21.38;43.62
66722;SHT31;53633;49.932;10.884;2023-05-27T05:52:58;21.84;43.13
66722;SHT31;53633;49.932;10.884;2023-05-27T05:55:25;22.14;42.25
66722;SHT31;53633;49.932;10.884;2023-05-27T05:57:53;22.46;41.96
66722;SHT31;53633;49.932;10.884;2023-05-27T06:00:20;22.79;40.61
66722;SHT31;53633;49.932;10.884;2023-05-27T06:02:47;22.94;40.42
66722;SHT31;53633;49.932;10.884;2023-05-27T06:05:13;22.49;41.18
66722;SHT31;53633;49.932;10.884;2023-05-27T06:07:40;22.56;40.71
66722;SHT31;53633;49.932;10.884;2023-05-27T06:10:08;22.59;40.83
66722;SHT31;53633;49.932;10.884;2023-05-27T06:12:34;23.66;39.51
66722;SHT31;53633;49.932;10.884;2023-05-27T06:15:03;23.54;39.61
66722;SHT31;53633;49.932;10.884;2023-05-27T06:17:30;24.07;38.81
66722;SHT31;53633;49.932;10.884;2023-05-27T06:19:56;24.06;38.76
66722;SHT31;53633;49.932;10.884;2023-05-27T06:22:23;24.28;38.37
66722;SHT31;53633;49.932;10.884;2023-05-27T06:24:50;23.96;39.12
66722;SHT31;53633;49.932;10.884;2023-05-27T06:27:17;23.52;39.51
66722;SHT31;53633;49.932;10.884;2023-05-27T06:29:45;23.82;39.41
66722;SHT31;53633;49.932;10.884;2023-05-27T06:32:13;23.83;39.45
66722;SHT31;53633;49.932;10.884;2023-05-27T06:34:40;23.52;40.09
66722;SHT31;53633;49.932;10.884;2023-05-27T06:37:07;23.44;39.91
66722;SHT31;53633;49.932;10.884;2023-05-27T06:39:33;24.07;38.90
66722;SHT31;53633;49.932;10.884;2023-05-27T06:42:00;24.48;38.11
66722;SHT31;53633;49.932;10.884;2023-05-27T06:44:27;24.69;37.71
66722;SHT31;53633;49.932;10.884;2023-05-27T06:46:53;25.08;37.17
66722;SHT31;53633;49.932;10.884;2023-05-27T06:49:22;24.69;38.18
66722;SHT31;53633;49.932;10.884;2023-05-27T06:51:48;24.54;38.49
66722;SHT31;53633;49.932;10.884;2023-05-27T06:54:15;24.17;39.12
66722;SHT31;53633;49.932;10.884;2023-05-27T06:56:42;23.96;39.86
66722;SHT31;53633;49.932;10.884;2023-05-27T06:59:08;23.65;40.30
66722;SHT31;53633;49.932;10.884;2023-05-27T07:01:35;23.85;40.53
66722;SHT31;53633;49.932;10.884;2023-05-27T07:04:02;23.70;41.12
66722;SHT31;53633;49.932;10.884;2023-05-27T07:06:45;23.80;40.32
66722;SHT31;53633;49.932;10.884;2023-05-27T07:09:12;23.32;41.56
66722;SHT31;53633;49.932;10.884;2023-05-27T07:11:39;23.82;40.76
66722;SHT31;53633;49.932;10.884;2023-05-27T07:14:05;23.82;40.57
66722;SHT31;53633;49.932;10.884;2023-05-27T07:16:32;23.95;40.34
66722;SHT31;53633;49.932;10.884;2023-05-27T07:18:59;23.70;40.04
66722;SHT31;53633;49.932;10.884;2023-05-27T07:21:26;23.82;40.12
66722;SHT31;53633;49.932;10.884;2023-05-27T07:23:54;24.12;40.41
66722;SHT31;53633;49.932;10.884;2023-05-27T07:26:21;24.33;40.50
66722;SHT31;53633;49.932;10.884;2023-05-27T07:28:47;24.14;37.71
66722;SHT31;53633;49.932;10.884;2023-05-27T07:31:14;22.92;38.13
66722;SHT31;53633;49.932;10.884;2023-05-27T07:33:41;23.95;37.01
66722;SHT31;53633;49.932;10.884;2023-05-27T07:36:08;24.78;36.48
66722;SHT31;53633;49.932;10.884;2023-05-27T07:38:35;24.03;36.86
66722;SHT31;53633;49.932;10.884;2023-05-27T07:41:03;24.00;36.38
66722;SHT31;53633;49.932;10.884;2023-05-27T07:43:30;24.30;36.09
66722;SHT31;53633;49.932;10.884;2023-05-27T07:45:57;25.46;35.29
66722;SHT31;53633;49.932;10.884;2023-05-27T07:48:24;24.71;34.86
66722;SHT31;53633;49.932;10.884;2023-05-27T07:50:50;24.73;34.27
66722;SHT31;53633;49.932;10.884;2023-05-27T07:53:18;24.71;34.71
66722;SHT31;53633;49.932;10.884;2023-05-27T07:55:45;24.40;35.40
66722;SHT31;53633;49.932;10.884;2023-05-27T07:58:13;24.40;35.16
66722;SHT31;53633;49.932;10.884;2023-05-27T08:00:40;22.60;37.99
66722;SHT31;53633;49.932;10.884;2023-05-27T08:03:07;23.75;37.29
66722;SHT31;53633;49.932;10.884;2023-05-27T08:05:34;24.35;36.63
66722;SHT31;53633;49.932;10.884;2023-05-27T08:08:01;24.28;35.75
66722;SHT31;53633;49.932;10.884;2023-05-27T08:10:28;23.85;36.35
66722;SHT31;53633;49.932;10.884;2023-05-27T08:12:55;23.42;37.99
66722;SHT31;53633;49.932;10.884;2023-05-27T08:15:23;23.38;36.28
66722;SHT31;53633;49.932;10.884;2023-05-27T08:17:50;23.99;35.99
66722;SHT31;53633;49.932;10.884;2023-05-27T08:20:17;24.27;35.79
66722;SHT31;53633;49.932;10.884;2023-05-27T08:22:44;24.61;34.87
66722;SHT31;53633;49.932;10.884;2023-05-27T08:25:10;24.52;34.83
66722;SHT31;53633;49.932;10.884;2023-05-27T08:27:44;23.83;37.18
66722;SHT31;53633;49.932;10.884;2023-05-27T08:30:12;24.24;36.31
66722;SHT31;53633;49.932;10.884;2023-05-27T08:32:42;24.07;36.00
66722;SHT31;53633;49.932;10.884;2023-05-27T08:35:10;24.62;35.50
66722;SHT31;53633;49.932;10.884;2023-05-27T08:37:37;24.69;34.46
66722;SHT31;53633;49.932;10.884;2023-05-27T08:40:09;24.23;34.99
66722;SHT31;53633;49.932;10.884;2023-05-27T08:42:36;24.68;34.26
66722;SHT31;53633;49.932;10.884;2023-05-27T08:45:04;25.12;34.08
66722;SHT31;53633;49.932;10.884;2023-05-27T08:47:31;25.58;34.42
66722;SHT31;53633;49.932;10.884;2023-05-27T08:50:02;25.10;34.78
66722;SHT31;53633;49.932;10.884;2023-05-27T08:52:29;25.65;34.07
66722;SHT31;53633;49.932;10.884;2023-05-27T08:54:57;26.25;33.45
66722;SHT31;53633;49.932;10.884;2023-05-27T08:57:30;25.31;34.41
66722;SHT31;53633;49.932;10.884;2023-05-27T08:59:58;25.27;33.91
66722;SHT31;53633;49.932;10.884;2023-05-27T09:02:27;25.47;33.84
66722;SHT31;53633;49.932;10.884;2023-05-27T09:04:54;25.96;34.30
66722;SHT31;53633;49.932;10.884;2023-05-27T09:07:22;24.68;35.71
66722;SHT31;53633;49.932;10.884;2023-05-27T09:09:55;24.47;34.98
66722;SHT31;53633;49.932;10.884;2023-05-27T09:12:23;25.58;34.34
66722;SHT31;53633;49.932;10.884;2023-05-27T09:14:50;25.92;35.25
66722;SHT31;53633;49.932;10.884;2023-05-27T09:17:17;26.78;34.07
66722;SHT31;53633;49.932;10.884;2023-05-27T09:19:44;26.67;32.54
66722;SHT31;53633;49.932;10.884;2023-05-27T09:22:19;26.67;32.23
66722;SHT31;53633;49.932;10.884;2023-05-27T09:24:47;26.43;32.85
66722;SHT31;53633;49.932;10.884;2023-05-27T09:27:14;26.32;33.02
66722;SHT31;53633;49.932;10.884;2023-05-27T09:29:41;26.36;33.81
66722;SHT31;53633;49.932;10.884;2023-05-27T09:32:08;25.73;34.48
66722;SHT31;53633;49.932;10.884;2023-05-27T09:34:38;25.15;33.28
66722;SHT31;53633;49.932;10.884;2023-05-27T09:37:05;25.81;33.78
66722;SHT31;53633;49.932;10.884;2023-05-27T09:39:39;26.25;32.43
66722;SHT31;53633;49.932;10.884;2023-05-27T09:42:07;25.20;32.73
66722;SHT31;53633;49.932;10.884;2023-05-27T09:44:35;25.15;32.83
66722;SHT31;53633;49.932;10.884;2023-05-27T09:47:04;24.57;34.33
66722;SHT31;53633;49.932;10.884;2023-05-27T09:49:32;24.35;34.41
66722;SHT31;53633;49.932;10.884;2023-05-27T09:52:00;24.69;32.54
66722;SHT31;53633;49.932;10.884;2023-05-27T09:54:27;24.98;34.41
66722;SHT31;53633;49.932;10.884;2023-05-27T09:56:56;24.98;33.17
66722;SHT31;53633;49.932;10.884;2023-05-27T09:59:25;25.77;32.18
66722;SHT31;53633;49.932;10.884;2023-05-27T10:01:53;25.13;33.61
66722;SHT31;53633;49.932;10.884;2023-05-27T10:04:21;25.51;33.71
66722;SHT31;53633;49.932;10.884;2023-05-27T10:06:48;25.28;34.25
66722;SHT31;53633;49.932;10.884;2023-05-27T10:09:16;25.47;31.78
66722;SHT31;53633;49.932;10.884;2023-05-27T10:11:43;25.13;33.97
66722;SHT31;53633;49.932;10.884;2023-05-27T10:14:11;25.09;32.24
66722;SHT31;53633;49.932;10.884;2023-05-27T10:16:50;24.58;34.52
66722;SHT31;53633;49.932;10.884;2023-05-27T10:19:17;24.17;34.73
66722;SHT31;53633;49.932;10.884;2023-05-27T10:21:44;23.86;34.47
66722;SHT31;53633;49.932;10.884;2023-05-27T10:24:11;24.17;34.71
66722;SHT31;53633;49.932;10.884;2023-05-27T10:26:39;23.61;34.97
66722;SHT31;53633;49.932;10.884;2023-05-27T10:29:08;23.17;34.01
66722;SHT31;53633;49.932;10.884;2023-05-27T10:31:35;23.62;35.23
66722;SHT31;53633;49.932;10.884;2023-05-27T10:34:05;23.32;35.78
66722;SHT31;53633;49.932;10.884;2023-05-27T10:36:32;22.83;36.32
66722;SHT31;53633;49.932;10.884;2023-05-27T10:39:00;22.94;36.70
66722;SHT31;53633;49.932;10.884;2023-05-27T10:41:38;22.96;34.63
66722;SHT31;53633;49.932;10.884;2023-05-27T10:44:05;22.75;33.29
66722;SHT31;53633;49.932;10.884;2023-05-27T10:46:38;23.10;34.41
66722;SHT31;53633;49.932;10.884;2023-05-27T10:49:14;23.15;34.64
66722;SHT31;53633;49.932;10.884;2023-05-27T10:51:42;22.69;34.09
66722;SHT31;53633;49.932;10.884;2023-05-27T10:54:09;22.15;35.73
66722;SHT31;53633;49.932;10.884;2023-05-27T10:56:48;22.42;34.46
66722;SHT31;53633;49.932;10.884;2023-05-27T10:59:19;22.72;35.45
66722;SHT31;53633;49.932;10.884;2023-05-27T11:01:50;22.83;35.58
66722;SHT31;53633;49.932;10.884;2023-05-27T11:04:22;22.99;35.62
66722;SHT31;53633;49.932;10.884;2023-05-27T11:06:58;22.92;36.07
66722;SHT31;53633;49.932;10.884;2023-05-27T11:09:28;22.70;36.16
66722;SHT31;53633;49.932;10.884;2023-05-27T11:11:56;22.60;34.56
66722;SHT31;53633;49.932;10.884;2023-05-27T11:14:23;22.22;34.47
66722;SHT31;53633;49.932;10.884;2023-05-27T11:16:50;22.38;35.60
66722;SHT31;53633;49.932;10.884;2023-05-27T11:19:17;22.69;34.58
66722;SHT31;53633;49.932;10.884;2023-05-27T11:21:46;22.70;34.87
66722;SHT31;53633;49.932;10.884;2023-05-27T11:24:16;22.56;35.73
66722;SHT31;53633;49.932;10.884;2023-05-27T11:26:44;22.51;33.39
66722;SHT31;53633;49.932;10.884;2023-05-27T11:29:10;22.28;34.87
66722;SHT31;53633;49.932;10.884;2023-05-27T11:31:37;22.52;36.49
66722;SHT31;53633;49.932;10.884;2023-05-27T11:34:05;22.51;35.13
66722;SHT31;53633;49.932;10.884;2023-05-27T11:36:31;22.21;34.24
66722;SHT31;53633;49.932;10.884;2023-05-27T11:39:00;22.10;33.11
66722;SHT31;53633;49.932;10.884;2023-05-27T11:41:28;22.37;34.77
66722;SHT31;53633;49.932;10.884;2023-05-27T11:43:56;22.15;34.85
66722;SHT31;53633;49.932;10.884;2023-05-27T11:46:24;22.22;35.37
66722;SHT31;53633;49.932;10.884;2023-05-27T11:48:59;22.28;35.65
66722;SHT31;53633;49.932;10.884;2023-05-27T11:51:27;22.12;34.15
66722;SHT31;53633;49.932;10.884;2023-05-27T11:53:54;22.14;34.08
66722;SHT31;53633;49.932;10.884;2023-05-27T11:56:22;22.22;34.92
66722;SHT31;53633;49.932;10.884;2023-05-27T11:58:49;22.29;35.20
66722;SHT31;53633;49.932;10.884;2023-05-27T12:01:16;22.52;35.16
66722;SHT31;53633;49.932;10.884;2023-05-27T12:03:43;22.56;35.11
66722;SHT31;53633;49.932;10.884;2023-05-27T12:06:10;22.35;35.68
66722;SHT31;53633;49.932;10.884;2023-05-27T12:08:37;22.51;36.27
66722;SHT31;53633;49.932;10.884;2023-05-27T12:11:04;22.53;34.66
66722;SHT31;53633;49.932;10.884;2023-05-27T12:13:32;22.37;35.40
66722;SHT31;53633;49.932;10.884;2023-05-27T12:15:59;22.37;36.21
66722;SHT31;53633;49.932;10.884;2023-05-27T12:18:26;22.22;38.78
66722;SHT31;53633;49.932;10.884;2023-05-27T12:20:53;22.56;36.12
66722;SHT31;53633;49.932;10.884;2023-05-27T12:23:20;22.59;36.02
66722;SHT31;53633;49.932;10.884;2023-05-27T12:25:47;22.32;34.81
66722;SHT31;53633;49.932;10.884;2023-05-27T12:28:14;22.15;34.78
66722;SHT31;53633;49.932;10.884;2023-05-27T12:30:42;22.25;33.79
66722;SHT31;53633;49.932;10.884;2023-05-27T12:33:11;22.38;34.06
66722;SHT31;53633;49.932;10.884;2023-05-27T12:35:37;22.41;33.79
66722;SHT31;53633;49.932;10.884;2023-05-27T12:38:04;22.53;32.99
66722;SHT31;53633;49.932;10.884;2023-05-27T12:40:31;22.52;33.57
66722;SHT31;53633;49.932;10.884;2023-05-27T12:42:58;22.53;31.51
66722;SHT31;53633;49.932;10.884;2023-05-27T12:45:25;22.48;30.26
66722;SHT31;53633;49.932;10.884;2023-05-27T12:47:54;22.35;31.18
66722;SHT31;53633;49.932;10.884;2023-05-27T12:50:21;22.37;30.22
66722;SHT31;53633;49.932;10.884;2023-05-27T12:52:49;22.51;32.16
66722;SHT31;53633;49.932;10.884;2023-05-27T12:55:16;22.28;31.77
66722;SHT31;53633;49.932;10.884;2023-05-27T12:57:43;22.39;30.81
66722;SHT31;53633;49.932;10.884;2023-05-27T13:00:11;22.53;33.26
66722;SHT31;53633;49.932;10.884;2023-05-27T13:02:39;22.51;32.48
66722;SHT31;53633;49.932;10.884;2023-05-27T13:05:08;22.53;32.47
66722;SHT31;53633;49.932;10.884;2023-05-27T13:07:36;22.46;30.96
66722;SHT31;53633;49.932;10.884;2023-05-27T13:10:03;22.63;32.57
66722;SHT31;53633;49.932;10.884;2023-05-27T13:12:32;22.77;31.42
66722;SHT31;53633;49.932;10.884;2023-05-27T13:15:00;22.62;31.84
66722;SHT31;53633;49.932;10.884;2023-05-27T13:17:27;22.42;31.85
66722;SHT31;53633;49.932;10.884;2023-05-27T13:19:54;22.27;30.60
66722;SHT31;53633;49.932;10.884;2023-05-27T13:22:23;22.41;34.13
66722;SHT31;53633;49.932;10.884;2023-05-27T13:24:50;22.51;32.91
66722;SHT31;53633;49.932;10.884;2023-05-27T13:27:17;22.44;32.29
66722;SHT31;53633;49.932;10.884;2023-05-27T13:29:44;22.55;33.39
66722;SHT31;53633;49.932;10.884;2023-05-27T13:32:11;22.60;33.58
66722;SHT31;53633;49.932;10.884;2023-05-27T13:34:39;22.55;33.07
66722;SHT31;53633;49.932;10.884;2023-05-27T13:37:05;22.35;32.41
66722;SHT31;53633;49.932;10.884;2023-05-27T13:39:34;22.48;34.21
66722;SHT31;53633;49.932;10.884;2023-05-27T13:42:00;22.53;34.46
66722;SHT31;53633;49.932;10.884;2023-05-27T13:44:28;22.52;32.21
66722;SHT31;53633;49.932;10.884;2023-05-27T13:46:56;22.80;32.15
66722;SHT31;53633;49.932;10.884;2023-05-27T13:49:23;22.73;33.57
66722;SHT31;53633;49.932;10.884;2023-05-27T13:51:50;22.66;33.89
66722;SHT31;53633;49.932;10.884;2023-05-27T13:54:17;22.67;33.33
66722;SHT31;53633;49.932;10.884;2023-05-27T13:56:45;22.75;33.77
66722;SHT31;53633;49.932;10.884;2023-05-27T13:59:12;22.59;32.20
66722;SHT31;53633;49.932;10.884;2023-05-27T14:01:39;22.57;31.96
66722;SHT31;53633;49.932;10.884;2023-05-27T14:04:06;22.46;32.61
66722;SHT31;53633;49.932;10.884;2023-05-27T14:06:33;22.60;33.32
66722;SHT31;53633;49.932;10.884;2023-05-27T14:09:00;22.48;31.58
66722;SHT31;53633;49.932;10.884;2023-05-27T14:11:27;22.55;33.42
66722;SHT31;53633;49.932;10.884;2023-05-27T14:13:55;22.56;32.65
66722;SHT31;53633;49.932;10.884;2023-05-27T14:16:22;22.49;30.25
66722;SHT31;53633;49.932;10.884;2023-05-27T14:18:49;22.63;32.65
66722;SHT31;53633;49.932;10.884;2023-05-27T14:21:17;22.73;32.02
66722;SHT31;53633;49.932;10.884;2023-05-27T14:23:44;22.77;31.87
66722;SHT31;53633;49.932;10.884;2023-05-27T14:26:11;22.73;33.14
66722;SHT31;53633;49.932;10.884;2023-05-27T14:28:37;22.60;32.94
66722;SHT31;53633;49.932;10.884;2023-05-27T14:31:05;22.57;33.21
66722;SHT31;53633;49.932;10.884;2023-05-27T14:33:33;22.65;34.32
66722;SHT31;53633;49.932;10.884;2023-05-27T14:35:59;22.70;35.65
66722;SHT31;53633;49.932;10.884;2023-05-27T14:38:26;22.76;34.60
66722;SHT31;53633;49.932;10.884;2023-05-27T14:40:53;22.73;33.71
66722;SHT31;53633;49.932;10.884;2023-05-27T14:43:20;22.56;32.74
66722;SHT31;53633;49.932;10.884;2023-05-27T14:45:47;22.60;32.45
66722;SHT31;53633;49.932;10.884;2023-05-27T14:48:15;22.56;33.07
66722;SHT31;53633;49.932;10.884;2023-05-27T14:50:42;22.63;34.46
66722;SHT31;53633;49.932;10.884;2023-05-27T14:53:10;22.55;33.48
66722;SHT31;53633;49.932;10.884;2023-05-27T14:55:37;22.62;34.67
66722;SHT31;53633;49.932;10.884;2023-05-27T14:58:04;22.59;34.82
66722;SHT31;53633;49.932;10.884;2023-05-27T15:00:31;22.60;34.07
66722;SHT31;53633;49.932;10.884;2023-05-27T15:02:58;22.67;34.83
66722;SHT31;53633;49.932;10.884;2023-05-27T15:05:27;22.66;33.94
66722;SHT31;53633;49.932;10.884;2023-05-27T15:07:53;22.53;34.02
66722;SHT31;53633;49.932;10.884;2023-05-27T15:10:20;22.45;34.84
66722;SHT31;53633;49.932;10.884;2023-05-27T15:12:47;22.46;34.81
66722;SHT31;53633;49.932;10.884;2023-05-27T15:15:15;22.51;34.72
66722;SHT31;53633;49.932;10.884;2023-05-27T15:17:42;22.55;34.82